ADDS METAR Data INFO
IDs: Format: Raw Decoded Include TAF

Data at: 0352 UTC 18 Oct 2017

KFVE 180253Z AUTO 16005KT 10SM FEW049 OVC080 06/M01 A2994 RMK AO2 SLP143 60000 T00611006 58010
KFVE 180153Z AUTO 16005KT 10SM OVC044 06/M01 A2997 RMK AO2 RAE26 SLP155 P0000 T00611011
KFVE 180053Z AUTO 20007KT 10SM -RA OVC044 06/M01 A2997 RMK AO2 RAB45 SLP157 P0000 T00611006
KFVE 172353Z AUTO 19006KT 10SM BKN043 OVC050 06/M01 A2997 RMK AO2 SLP156 T00611011 10078 20056 56012
KFVE 172253Z AUTO 19007KT 10SM FEW048 OVC075 06/M02 A2998 RMK AO2 SLP159 T00611017
KFVE 172153Z AUTO 18004KT 10SM BKN048 OVC060 07/M02 A2999 RMK AO2 SLP163 T00671017
KFVE 172053Z AUTO 19007KT 10SM OVC065 07/M02 A3001 RMK AO2 SLP169 T00671017 56016
KFVE 171953Z AUTO 25008KT 10SM SCT080 BKN095 07/M03 A3002 RMK AO2 SLP173 T00721028
KFVE 171853Z AUTO 26008KT 10SM FEW040 FEW055 08/M03 A3004 RMK AO2 SLP178 T00781028
KFVE 171753Z AUTO 23009KT 10SM SCT050 06/M02 A3005 RMK AO2 SLP185 T00561022 10067 21006 58021
KFVE 171653Z AUTO 25009KT 10SM FEW038 BKN060 OVC090 06/M03 A3008 RMK AO2 SLP194 T00561028
KFVE 171553Z AUTO 22009KT 10SM BKN095 06/M04 A3010 RMK AO2 SLP200 T00561044
KFVE 171453Z AUTO 27010KT 10SM CLR 04/M04 A3012 RMK AO2 SLP207 T00441039 58003
KFVE 171353Z AUTO VRB04KT 10SM CLR 03/M03 A3012 RMK AO2 SLP209 T00281028
KFVE 171253Z AUTO 26005KT 10SM CLR 01/M02 A3013 RMK AO2 SLP211 T00111022
KFVE 171153Z AUTO 29006KT 10SM CLR M01/M03 A3013 RMK AO2 SLP211 70002 T10061033 10006 21017 53013
KFVE 171053Z AUTO 28007KT 10SM CLR M02/M04 A3011 RMK AO2 SLP206 T10171039
KFVE 170953Z AUTO 30004KT 10SM CLR M01/M03 A3009 RMK AO2 SLP201 T10111033
KFVE 170853Z AUTO 28007KT 10SM FEW070 M01/M03 A3009 RMK AO2 SLP197 T10111033 53008
KFVE 170753Z AUTO 29007KT 10SM OVC070 00/M03 A3008 RMK AO2 SLP193 T00001028
KFVE 170653Z AUTO 29008KT 10SM OVC070 00/M03 A3007 RMK AO2 SLP190 T00001028
KFVE 170553Z AUTO 29006KT 10SM OVC070 00/M03 A3006 RMK AO2 SLP187 T00001033 10017 20000 53005
KFVE 170453Z AUTO 30006KT 10SM BKN065 00/M02 A3006 RMK AO2 SLP186 T00001022 401440000
KFVE 170353Z AUTO 29004KT 10SM OVC060 01/M02 A3005 RMK AO2 SLP184 T00061022
KFVE 170253Z AUTO 31005KT 10SM OVC060 01/M02 A3005 RMK AO2 SLP183 T00111017 51010
KFVE 170153Z AUTO 31005KT 10SM OVC055 01/M01 A3004 RMK AO2 SLP182 T00111011
KFVE 170053Z AUTO 00000KT 10SM OVC055 01/M01 A3003 RMK AO2 SLP176 T00111006
KFVE 162353Z AUTO 31005KT 10SM OVC050 01/00 A3002 RMK AO2 SLP172 60002 T00110000 10061 20011 51014
KFVE 162253Z AUTO 31004KT 10SM OVC050 02/00 A3001 RMK AO2 SLP169 T00170000
KFVE 162153Z AUTO 32005KT 9SM FEW018 BKN032 OVC046 01/M01 A2999 RMK AO2 RAE04B29E35SNB35E51 SLP164 P0001 T00111006
KFVE 162102Z AUTO 35006G15KT 10SM -RA FEW008 SCT017 BKN023 02/00 A2998 RMK AO2 P0000 T00170000
KFVE 162053Z AUTO 35011KT 10SM -RA FEW018 BKN025 OVC041 02/00 A2997 RMK AO2 RAB04E32B43 SLP157 P0001 60001 T00170000 51024
KFVE 162041Z AUTO 32016G21KT 10SM SCT018 BKN032 OVC041 03/M01 A2997 RMK AO2 RAB04E32 P0000 T00281006
KFVE 162015Z AUTO 34008KT 9SM -RA BKN020 BKN027 OVC041 03/01 A2995 RMK AO2 RAB04 P0000 T00330006
KFVE 161953Z AUTO 32009KT 10SM FEW019 OVC040 04/M02 A2995 RMK AO2 SLP149 T00391017
KFVE 161944Z AUTO 34010G18KT 10SM SCT019 OVC038 04/M01 A2995 RMK AO2 T00441011
KFVE 161853Z AUTO 35010KT 10SM SCT020 BKN026 OVC045 04/M01 A2993 RMK AO2 RAB02E36 SLP141 P0000 T00391006
KFVE 161839Z AUTO 34011KT 10SM FEW018 FEW025 BKN041 04/M01 A2992 RMK AO2 RAB02E36 P0000 T00391006
KFVE 161827Z AUTO 34014G22KT 10SM -RA SCT018 BKN025 03/00 A2992 RMK AO2 RAB02 P0000 T00330000
KFVE 161753Z AUTO 32013G21KT 10SM FEW022 SCT037 06/00 A2990 RMK AO2 RAB02E13 SLP127 P0000 60000 T00610000 10061 20028 51013
KFVE 161727Z AUTO 34012G18KT 10SM FEW018 FEW025 BKN035 04/00 A2990 RMK AO2 RAB02E13 P0000 T00390000
KFVE 161653Z AUTO 33010G18KT 10SM BKN024 OVC029 05/00 A2989 RMK AO2 RAE29 SLP125 P0000 T00500000
KFVE 161553Z AUTO 33016G24KT 10SM -RA FEW017 OVC025 04/00 A2988 RMK AO2 SLP121 P0000 T00440000